Time;durP1;ratioP1;P1;durP2;ratioP2;P2;SDS_P1;SDS_P2;PMS_P1;PMS_P2;Temp;Humidity;BMP_temperature;BMP_pressure;BME280_temperature;BME280_humidity;BME280_pressure;Samples;Min_cycle;Max_cycle;Signal;HPM_P1;HPM_P2
2022/01/13 00:00:21;;;;;;;24.13;12.17;;;;;;;3.67;75.21;103072.59;5098534;27;20301;-66
2022/01/13 00:02:48;;;;;;;20.43;11.03;;;;;;;3.71;75.18;103076.84;5102977;28;20709;-64
2022/01/13 00:05:18;;;;;;;20.37;10.97;;;;;;;3.70;74.84;103080.38;5103230;27;20625;-65
2022/01/13 00:07:47;;;;;;;21.30;12.00;;;;;;;3.65;75.27;103082.28;5113476;27;20438;-65
2022/01/13 00:10:15;;;;;;;25.57;11.33;;;;;;;3.54;75.93;103082.53;5105679;28;20292;-64
2022/01/13 00:12:44;;;;;;;21.60;11.57;;;;;;;3.37;76.52;103088.22;5102791;27;20237;-66
2022/01/13 00:15:25;;;;;;;22.37;10.13;;;;;;;3.67;75.56;103083.09;5102464;28;20689;-64
2022/01/13 00:18:09;;;;;;;21.90;11.27;;;;;;;3.60;75.58;103076.31;5102461;27;20224;-66
2022/01/13 00:23:41;;;;;;;21.43;10.97;;;;;;;3.77;75.38;103084.59;5106633;27;20296;-65
2022/01/13 00:26:14;;;;;;;21.77;11.07;;;;;;;3.76;74.74;103082.88;5104019;28;20316;-64
2022/01/13 00:28:44;;;;;;;20.57;11.20;;;;;;;3.85;74.06;103085.25;5097908;28;20574;-65
2022/01/13 00:31:12;;;;;;;21.20;11.37;;;;;;;3.78;74.67;103084.53;5095248;28;20262;-64
2022/01/13 00:33:44;;;;;;;16.13;9.93;;;;;;;3.89;74.11;103081.63;5104842;27;20216;-65
2022/01/13 00:36:12;;;;;;;21.40;11.10;;;;;;;3.71;74.96;103082.09;5104218;27;20217;-65
2022/01/13 00:38:41;;;;;;;19.80;10.90;;;;;;;3.62;74.93;103080.59;5100833;28;20607;-65
2022/01/13 00:41:09;;;;;;;20.63;10.90;;;;;;;3.64;75.33;103075.31;5102540;28;20321;-65
2022/01/13 00:43:40;;;;;;;18.23;10.30;;;;;;;3.72;74.64;103073.34;5104228;27;20245;-65
2022/01/13 00:46:09;;;;;;;20.67;10.97;;;;;;;3.50;75.46;103072.19;5102976;27;20209;-65
2022/01/13 00:48:37;;;;;;;20.47;11.57;;;;;;;3.51;76.01;103080.03;5101186;27;20226;-65
2022/01/13 00:51:04;;;;;;;22.60;11.30;;;;;;;3.60;75.71;103084.16;5102108;27;20302;-65
2022/01/13 00:53:32;;;;;;;19.67;11.37;;;;;;;3.54;75.15;103084.31;5104527;28;20283;-65
2022/01/13 00:56:01;;;;;;;18.77;10.23;;;;;;;3.27;75.92;103096.34;5105676;28;20212;-65
2022/01/13 00:58:30;;;;;;;21.20;11.83;;;;;;;3.56;75.75;103093.88;5106772;28;20208;-64
2022/01/13 01:01:00;;;;;;;20.87;11.80;;;;;;;3.45;75.97;103095.91;5103799;28;20581;-64
2022/01/13 01:03:29;;;;;;;21.43;11.60;;;;;;;3.72;75.20;103102.19;5095560;28;20299;-64
2022/01/13 01:05:58;;;;;;;21.90;11.30;;;;;;;3.77;74.53;103109.06;5107828;28;20252;-65
2022/01/13 01:08:26;;;;;;;24.30;12.10;;;;;;;3.79;74.95;103106.38;5101198;27;20228;-65
2022/01/13 01:10:55;;;;;;;21.87;12.10;;;;;;;3.74;74.89;103103.03;5101964;27;20244;-65
2022/01/13 01:13:28;;;;;;;19.63;11.50;;;;;;;3.79;75.10;103098.50;5098266;27;20259;-65
2022/01/13 01:15:58;;;;;;;20.40;11.33;;;;;;;3.78;75.13;103099.44;5103923;27;20251;-64
2022/01/13 01:18:33;;;;;;;19.90;11.17;;;;;;;3.82;75.15;103089.69;5097189;27;20209;-64
2022/01/13 01:24:29;;;;;;;25.23;12.07;;;;;;;3.89;74.68;103092.13;5105917;28;20299;-64
2022/01/13 01:27:02;;;;;;;20.13;11.57;;;;;;;3.59;76.05;103099.06;5105640;28;20228;-64
2022/01/13 01:29:37;;;;;;;22.13;11.23;;;;;;;3.57;75.63;103089.50;5104344;28;20659;-64
2022/01/13 01:32:09;;;;;;;21.17;11.87;;;;;;;3.76;75.13;103098.59;5101365;27;20206;-64
2022/01/13 01:34:54;;;;;;;21.07;11.30;;;;;;;3.70;74.68;103088.25;5105694;27;20733;-64
2022/01/13 01:37:24;;;;;;;24.43;12.23;;;;;;;3.49;75.58;103091.44;5100228;28;20208;-64
2022/01/13 01:39:52;;;;;;;20.20;11.10;;;;;;;3.76;75.20;103098.59;5103311;28;20245;-63
2022/01/13 01:42:21;;;;;;;21.47;11.60;;;;;;;3.87;74.41;103098.34;5100358;28;20261;-63
2022/01/13 01:44:54;;;;;;;23.07;12.13;;;;;;;3.79;74.87;103096.75;5107214;27;20273;-65
2022/01/13 01:47:25;;;;;;;22.03;11.90;;;;;;;3.68;75.64;103087.44;5095872;28;20717;-64
2022/01/13 01:49:56;;;;;;;22.13;11.93;;;;;;;3.75;74.92;103083.75;5094235;28;20209;-66
2022/01/13 01:52:25;;;;;;;21.90;11.57;;;;;;;3.63;75.73;103090.19;5099359;28;20216;-64
2022/01/13 01:54:54;;;;;;;21.93;12.03;;;;;;;3.70;75.56;103096.13;5107078;27;20218;-65
2022/01/13 01:57:24;;;;;;;27.93;12.67;;;;;;;3.55;75.82;103091.28;5106660;27;20294;-65
2022/01/13 01:59:54;;;;;;;24.23;12.47;;;;;;;3.50;75.29;103094.03;5095905;27;20223;-66
2022/01/13 02:02:25;;;;;;;25.00;12.87;;;;;;;3.70;75.54;103085.63;5100957;27;20212;-65
2022/01/13 02:04:53;;;;;;;20.83;11.70;;;;;;;3.54;76.40;103084.31;5106215;28;20227;-65
2022/01/13 02:07:22;;;;;;;25.23;13.53;;;;;;;3.73;75.98;103090.81;5099363;28;20215;-65
2022/01/13 02:09:52;;;;;;;23.90;12.07;;;;;;;3.50;75.60;103094.03;5100525;27;20229;-67
2022/01/13 02:12:32;;;;;;;22.70;11.23;;;;;;;3.16;75.86;103099.25;5104546;28;20688;-65
2022/01/13 02:15:29;;;;;;;19.63;11.77;;;;;;;2.88;78.21;103100.81;5098527;28;20216;-65
2022/01/13 02:17:57;;;;;;;19.90;11.67;;;;;;;3.07;77.13;103098.63;5098444;27;20226;-66
2022/01/13 02:20:41;;;;;;;20.60;12.23;;;;;;;2.71;77.07;103095.06;5110335;27;20246;-64
2022/01/13 02:23:09;;;;;;;22.83;12.27;;;;;;;2.77;77.44;103082.69;5092926;28;20302;-64
2022/01/13 02:25:36;;;;;;;22.17;12.17;;;;;;;3.14;76.78;103080.06;5095490;28;20678;-64
2022/01/13 02:28:05;;;;;;;26.47;12.10;;;;;;;3.26;76.07;103068.41;5097306;27;20258;-63
2022/01/13 02:30:32;;;;;;;27.40;12.97;;;;;;;3.02;77.19;103086.47;5096775;28;20216;-63
2022/01/13 02:33:00;;;;;;;25.13;14.17;;;;;;;3.53;75.14;103079.97;5114084;27;20241;-64
2022/01/13 02:35:36;;;;;;;23.80;12.53;;;;;;;3.72;74.04;103070.72;5097768;28;20203;-64
2022/01/13 02:38:10;;;;;;;22.53;11.93;;;;;;;3.96;73.60;103056.91;5103038;27;20217;-65
2022/01/13 02:40:38;;;;;;;21.40;12.03;;;;;;;4.07;72.86;103057.47;5101115;27;20305;-65
2022/01/13 02:43:06;;;;;;;22.07;11.93;;;;;;;3.97;73.02;103053.38;5099772;27;20239;-65
2022/01/13 02:45:37;;;;;;;26.00;12.03;;;;;;;3.73;74.42;103062.78;5100309;28;20323;-65
2022/01/13 02:50:54;;;;;;;21.70;11.60;;;;;;;3.62;75.07;103061.34;5095262;27;20258;-65
2022/01/13 02:53:22;;;;;;;23.80;12.57;;;;;;;3.61;74.55;103059.63;5099968;28;21535;-65
2022/01/13 02:55:50;;;;;;;21.97;11.50;;;;;;;3.15;75.30;103058.19;5104110;27;20566;-65
2022/01/13 02:58:18;;;;;;;24.53;12.43;;;;;;;2.97;76.20;103058.66;5094099;28;20213;-65
2022/01/13 03:00:46;;;;;;;22.93;11.77;;;;;;;3.29;75.18;103056.09;5100896;28;21134;-65
2022/01/13 03:03:13;;;;;;;22.63;12.40;;;;;;;3.47;74.21;103065.25;5094431;28;20215;-65
2022/01/13 03:05:41;;;;;;;21.97;12.47;;;;;;;3.57;73.67;103069.34;5093855;27;20344;-65
2022/01/13 03:08:11;;;;;;;20.23;11.20;;;;;;;3.83;72.23;103071.28;5100075;28;20214;-65
2022/01/13 03:10:39;;;;;;;20.33;11.00;;;;;;;3.63;72.86;103073.56;5097820;28;20218;-65
2022/01/13 03:13:07;;;;;;;21.60;12.10;;;;;;;3.51;73.67;103068.66;5090923;28;20239;-65
2022/01/13 03:15:35;;;;;;;22.60;12.00;;;;;;;3.38;74.18;103082.09;5108041;28;20298;-65
2022/01/13 03:18:03;;;;;;;21.83;11.33;;;;;;;3.55;73.70;103076.41;5102941;28;20654;-65
2022/01/13 03:20:31;;;;;;;17.80;10.60;;;;;;;3.42;73.79;103075.00;5102126;28;20796;-65
2022/01/13 03:22:58;;;;;;;18.73;10.47;;;;;;;3.23;74.61;103066.75;5096085;28;20629;-65
2022/01/13 03:25:27;;;;;;;23.57;11.03;;;;;;;3.36;74.39;103075.16;5095537;28;20239;-65
2022/01/13 03:28:03;;;;;;;24.13;12.10;;;;;;;3.30;74.59;103073.56;5099380;27;20717;-62
2022/01/13 03:30:32;;;;;;;19.10;10.50;;;;;;;3.38;74.29;103078.59;5106101;28;20234;-65
2022/01/13 03:33:00;;;;;;;21.53;10.77;;;;;;;3.39;74.65;103075.06;5103345;27;20235;-65
2022/01/13 03:35:28;;;;;;;26.43;12.27;;;;;;;3.56;74.70;103075.50;5108551;27;20215;-65
2022/01/13 03:37:57;;;;;;;20.20;11.43;;;;;;;3.49;75.49;103076.56;5111087;28;20204;-65
2022/01/13 03:40:27;;;;;;;19.87;11.67;;;;;;;3.46;75.73;103070.53;5100864;27;20209;-65
2022/01/13 03:42:55;;;;;;;22.60;12.43;;;;;;;3.70;75.36;103077.75;5097806;28;20700;-65
2022/01/13 03:45:23;;;;;;;21.90;12.63;;;;;;;3.50;76.16;103074.81;5107714;27;20731;-65
2022/01/13 03:47:51;;;;;;;23.00;11.70;;;;;;;3.57;76.50;103073.75;5105070;28;20205;-65
2022/01/13 03:50:19;;;;;;;20.63;11.90;;;;;;;3.50;75.94;103072.19;5101124;28;20287;-65
2022/01/13 03:53:24;;;;;;;19.43;11.90;;;;;;;3.59;75.63;103077.19;5096287;27;20685;-65
2022/01/13 03:56:27;;;;;;;20.60;11.50;;;;;;;3.84;74.34;103073.00;5102804;27;20210;-65
2022/01/13 03:59:40;;;;;;;20.90;12.30;;;;;;;3.81;74.07;103070.47;5092789;28;20265;-65
2022/01/13 04:02:09;;;;;;;25.57;12.80;;;;;;;3.84;74.49;103067.75;5099664;28;20234;-65
2022/01/13 04:04:42;;;;;;;24.53;12.33;;;;;;;3.86;74.45;103067.72;5097163;27;20592;-65
2022/01/13 04:07:12;;;;;;;20.00;11.17;;;;;;;3.44;75.99;103069.69;5098291;27;20231;-65
2022/01/13 04:10:20;;;;;;;22.00;12.77;;;;;;;3.39;77.45;103070.69;5100711;27;20219;-65
2022/01/13 04:12:48;;;;;;;23.97;11.60;;;;;;;3.45;76.51;103071.44;5101268;27;20244;-64
2022/01/13 04:15:19;;;;;;;24.83;12.67;;;;;;;3.04;78.56;103068.09;5104203;27;20601;-64
2022/01/13 04:17:47;;;;;;;22.03;12.10;;;;;;;3.09;78.33;103063.56;5104429;28;20240;-64
2022/01/13 04:20:15;;;;;;;22.30;12.73;;;;;;;3.39;77.63;103054.97;5102351;28;20221;-65
2022/01/13 04:22:43;;;;;;;24.43;12.20;;;;;;;3.37;77.52;103061.13;5096999;27;20223;-64
2022/01/13 04:25:11;;;;;;;21.77;12.53;;;;;;;3.72;76.72;103057.59;5098701;27;20294;-64
2022/01/13 04:27:43;;;;;;;22.40;12.47;;;;;;;3.75;75.95;103052.25;5097687;28;20234;-64
2022/01/13 04:30:32;;;;;;;22.57;12.73;;;;;;;3.68;76.28;103050.72;5104271;28;20307;-65
2022/01/13 04:33:02;;;;;;;19.53;11.57;;;;;;;3.68;76.89;103034.97;5102424;27;20213;-64
2022/01/13 04:35:30;;;;;;;20.10;11.63;;;;;;;3.83;76.49;103038.94;5099087;27;20655;-64
2022/01/13 04:37:58;;;;;;;23.73;11.50;;;;;;;3.82;76.83;103039.81;5096825;28;20214;-64
2022/01/13 04:40:26;;;;;;;20.63;11.67;;;;;;;3.57;77.98;103047.50;5099379;27;20203;-64
2022/01/13 04:42:56;;;;;;;21.33;11.83;;;;;;;3.65;77.93;103053.41;5101234;27;20238;-65
2022/01/13 04:45:26;;;;;;;23.20;12.13;;;;;;;3.88;76.90;103051.00;5094906;27;20237;-64
2022/01/13 04:47:56;;;;;;;22.60;11.23;;;;;;;3.73;78.16;103062.78;5099726;27;20232;-64
2022/01/13 04:50:25;;;;;;;20.73;11.33;;;;;;;3.71;78.61;103061.97;5098893;27;20650;-64
2022/01/13 04:52:53;;;;;;;17.37;10.60;;;;;;;4.07;76.54;103061.84;5103948;27;20217;-64
2022/01/13 04:55:25;;;;;;;19.97;10.90;;;;;;;4.00;77.07;103053.31;5101437;27;20227;-64
2022/01/13 04:57:54;;;;;;;21.57;11.50;;;;;;;4.29;75.67;103051.59;5100800;27;20274;-64
2022/01/13 05:00:23;;;;;;;20.40;11.53;;;;;;;4.36;75.14;103050.50;5094748;28;20707;-64
2022/01/13 05:02:51;;;;;;;20.77;11.30;;;;;;;4.35;75.19;103051.41;5102344;27;20232;-64
2022/01/13 05:05:19;;;;;;;21.93;12.53;;;;;;;4.39;75.05;103051.28;5103339;27;20220;-64
2022/01/13 05:07:48;;;;;;;24.30;12.97;;;;;;;4.21;76.23;103050.97;5109216;28;20235;-64
2022/01/13 05:10:16;;;;;;;21.93;11.87;;;;;;;4.33;75.62;103056.72;5103820;27;20217;-65
2022/01/13 05:12:46;;;;;;;24.00;13.20;;;;;;;4.40;75.25;103046.88;5099370;27;20315;-65
2022/01/13 05:15:19;;;;;;;23.30;13.57;;;;;;;4.13;76.91;103046.78;5101961;27;20203;-65
2022/01/13 05:20:39;;;;;;;23.70;13.87;;;;;;;3.99;77.94;103055.97;5106669;27;20211;-64
2022/01/13 05:23:11;;;;;;;20.70;12.17;;;;;;;4.05;77.62;103056.63;5096355;28;20329;-65
2022/01/13 05:25:41;;;;;;;23.07;12.77;;;;;;;4.10;77.67;103053.91;5097504;27;20226;-65
2022/01/13 05:28:09;;;;;;;23.87;14.40;;;;;;;4.11;77.39;103053.00;5097997;28;20688;-65
2022/01/13 05:30:36;;;;;;;25.80;13.37;;;;;;;4.22;77.27;103052.69;5102298;27;20235;-64
2022/01/13 05:33:04;;;;;;;21.40;12.40;;;;;;;4.25;76.83;103049.97;5093739;27;20333;-65
2022/01/13 05:35:32;;;;;;;21.90;13.80;;;;;;;4.49;75.89;103046.59;5095868;28;20217;-65
2022/01/13 05:38:00;;;;;;;21.87;12.80;;;;;;;4.21;76.19;103045.72;5093303;27;20237;-65
2022/01/13 05:40:29;;;;;;;21.30;12.70;;;;;;;4.45;75.48;103053.72;5093684;27;20641;-65
2022/01/13 05:42:57;;;;;;;22.37;12.43;;;;;;;4.39;75.35;103053.94;5097924;28;20672;-65
2022/01/13 05:45:29;;;;;;;21.97;12.47;;;;;;;4.50;74.83;103053.56;5099860;27;20682;-65
2022/01/13 05:47:59;;;;;;;21.70;12.63;;;;;;;4.46;75.00;103062.47;5113966;27;20865;-64
2022/01/13 05:50:27;;;;;;;24.50;13.77;;;;;;;4.30;75.11;103059.44;5103695;28;20231;-65
2022/01/13 05:52:55;;;;;;;24.83;14.10;;;;;;;4.02;76.26;103056.75;5100615;28;20209;-65
2022/01/13 05:55:24;;;;;;;29.27;14.83;;;;;;;4.27;75.66;103059.53;5103955;27;20214;-65
2022/01/13 05:57:53;;;;;;;24.23;14.00;;;;;;;4.06;75.75;103063.63;5094096;27;20209;-65
2022/01/13 06:00:23;;;;;;;28.60;14.70;;;;;;;4.34;75.16;103065.44;5103528;27;20303;-65
2022/01/13 06:02:51;;;;;;;25.20;14.83;;;;;;;4.39;74.86;103066.19;5100881;28;20264;-65
2022/01/13 06:05:19;;;;;;;26.43;15.00;;;;;;;4.35;75.36;103065.41;5099714;27;20296;-64
2022/01/13 06:07:47;;;;;;;29.47;15.20;;;;;;;4.44;74.90;103064.28;5104588;27;20327;-66
2022/01/13 06:10:19;;;;;;;29.77;15.77;;;;;;;4.30;75.20;103064.69;5101847;27;20209;-65
2022/01/13 06:12:48;;;;;;;24.77;14.77;;;;;;;4.32;75.42;103076.00;5096472;27;20236;-66
2022/01/13 06:15:19;;;;;;;24.67;14.53;;;;;;;4.28;75.44;103084.03;5092719;27;20233;-65
2022/01/13 06:17:48;;;;;;;27.77;16.27;;;;;;;4.52;74.94;103085.94;5100071;27;20209;-65
2022/01/13 06:20:17;;;;;;;30.57;16.67;;;;;;;4.28;75.26;103087.53;5106415;28;20248;-65
2022/01/13 06:22:46;;;;;;;28.80;17.00;;;;;;;3.99;76.79;103092.72;5100614;27;20207;-66
2022/01/13 06:25:15;;;;;;;26.80;15.70;;;;;;;4.36;75.74;103095.19;5092496;28;20299;-65
2022/01/13 06:27:43;;;;;;;32.07;16.53;;;;;;;4.14;76.12;103093.16;5095817;27;20324;-65
2022/01/13 06:30:33;;;;;;;33.20;16.67;;;;;;;4.26;75.23;103097.22;5097275;27;20217;-65
2022/01/13 06:33:01;;;;;;;32.80;15.73;;;;;;;4.08;74.93;103103.84;5094063;28;20219;-65
2022/01/13 06:35:28;;;;;;;27.93;15.23;;;;;;;4.31;74.60;103105.81;5092101;28;20272;-65
2022/01/13 06:37:56;;;;;;;27.60;15.63;;;;;;;4.12;74.46;103110.75;5096246;28;20277;-65
2022/01/13 06:40:24;;;;;;;30.63;15.40;;;;;;;4.30;74.20;103104.09;5100597;28;20312;-65
2022/01/13 06:42:52;;;;;;;28.40;15.70;;;;;;;4.43;73.57;103109.84;5102970;27;20661;-65
2022/01/13 06:45:20;;;;;;;34.10;17.20;;;;;;;4.37;74.00;103115.28;5099635;28;20296;-64
2022/01/13 06:47:49;;;;;;;27.67;15.07;;;;;;;4.61;72.88;103119.81;5104063;28;20335;-64
2022/01/13 06:50:17;;;;;;;29.70;15.80;;;;;;;4.51;73.19;103121.00;5097934;28;20567;-66
2022/01/13 06:52:47;;;;;;;28.37;15.77;;;;;;;4.52;73.29;103115.72;5104376;28;20212;-66
2022/01/13 06:55:15;;;;;;;28.17;15.43;;;;;;;4.45;73.47;103119.44;5096636;28;20213;-66
2022/01/13 06:57:43;;;;;;;32.50;15.93;;;;;;;4.35;73.47;103111.84;5095782;28;20209;-65
2022/01/13 07:00:14;;;;;;;27.13;15.60;;;;;;;4.19;74.50;103114.06;5096282;28;20223;-65
2022/01/13 07:02:42;;;;;;;26.67;15.43;;;;;;;3.95;74.96;103118.22;5113671;27;20206;-65
2022/01/13 07:05:12;;;;;;;30.30;15.83;;;;;;;4.31;73.87;103110.22;5096010;28;20303;-65
2022/01/13 07:07:41;;;;;;;27.73;15.83;;;;;;;3.87;74.96;103120.16;5100121;28;20239;-65
2022/01/13 07:10:10;;;;;;;33.87;15.67;;;;;;;3.64;76.54;103112.91;5099802;27;20208;-66
2022/01/13 07:12:39;;;;;;;27.50;14.10;;;;;;;2.96;78.70;103112.84;5092591;28;20247;-65
2022/01/13 07:15:09;;;;;;;29.03;15.03;;;;;;;3.62;76.89;103114.69;5095994;28;20218;-65
2022/01/13 07:17:38;;;;;;;26.73;14.47;;;;;;;3.96;75.33;103112.03;5096187;28;20201;-65
2022/01/13 07:20:06;;;;;;;29.53;15.73;;;;;;;4.03;74.08;103110.13;5101793;28;20521;-65
2022/01/13 07:22:37;;;;;;;30.13;15.10;;;;;;;3.85;75.31;103115.88;5095775;28;20212;-65
2022/01/13 07:25:05;;;;;;;30.47;15.30;;;;;;;4.00;74.41;103120.72;5102253;28;20239;-58
2022/01/13 07:27:38;;;;;;;29.03;14.93;;;;;;;4.24;73.64;103119.16;5106101;28;20316;-57
2022/01/13 07:30:08;;;;;;;28.77;15.43;;;;;;;4.50;72.58;103124.53;5097151;28;20276;-59
2022/01/13 07:32:36;;;;;;;30.60;15.97;;;;;;;4.47;72.52;103120.25;5097713;28;20211;-59
2022/01/13 07:35:05;;;;;;;31.80;16.50;;;;;;;4.50;72.14;103116.66;5097694;28;20646;-60
2022/01/13 07:37:33;;;;;;;29.43;16.73;;;;;;;4.56;71.91;103119.13;5099387;28;20616;-59
2022/01/13 07:40:02;;;;;;;32.97;16.53;;;;;;;4.14;73.96;103124.66;5100807;28;20204;-60
2022/01/13 07:42:30;;;;;;;31.40;17.50;;;;;;;4.33;73.88;103117.13;5089029;28;20213;-60
2022/01/13 07:44:57;;;;;;;30.63;15.80;;;;;;;4.46;73.28;103110.63;5100675;28;20234;-60
2022/01/13 07:47:26;;;;;;;35.27;17.30;;;;;;;4.36;73.64;103105.69;5099450;28;20220;-60
2022/01/13 07:49:54;;;;;;;31.73;16.63;;;;;;;4.39;73.91;103113.50;5102718;28;20221;-60
2022/01/13 07:52:25;;;;;;;34.53;18.07;;;;;;;4.36;74.21;103108.31;5088549;28;20213;-60
2022/01/13 07:54:53;;;;;;;34.67;18.50;;;;;;;4.48;73.20;103113.22;5096185;28;20244;-59
2022/01/13 07:57:22;;;;;;;29.73;16.53;;;;;;;4.58;72.59;103119.03;5096157;28;20662;-59
2022/01/13 07:59:51;;;;;;;30.23;16.57;;;;;;;4.56;72.76;103120.88;5099492;28;20221;-59
2022/01/13 08:02:18;;;;;;;37.30;17.20;;;;;;;4.59;72.89;103115.50;5096158;28;20252;-58
2022/01/13 08:04:47;;;;;;;30.30;17.40;;;;;;;4.49;73.44;103125.44;5104695;28;20213;-60
2022/01/13 08:07:14;;;;;;;44.23;20.57;;;;;;;4.53;74.02;103125.31;5099023;28;20221;-61
2022/01/13 08:09:42;;;;;;;35.90;18.73;;;;;;;4.57;74.44;103128.72;5106081;28;20230;-60
2022/01/13 08:12:11;;;;;;;32.57;17.77;;;;;;;4.57;74.33;103120.84;5101384;27;20214;-61
2022/01/13 08:14:40;;;;;;;33.30;19.10;;;;;;;4.65;73.90;103121.47;5111769;27;20237;-60
2022/01/13 08:17:18;;;;;;;34.47;17.87;;;;;;;4.58;74.15;103130.41;5108683;28;20210;-59
2022/01/13 08:19:48;;;;;;;42.83;19.97;;;;;;;4.55;74.71;103130.53;5103911;27;20209;-60
2022/01/13 08:22:17;;;;;;;37.37;18.73;;;;;;;4.72;74.26;103128.25;5102309;27;20206;-60
2022/01/13 08:24:45;;;;;;;38.40;18.97;;;;;;;4.81;73.57;103128.00;5099548;27;20706;-61
2022/01/13 08:27:13;;;;;;;40.40;20.23;;;;;;;4.74;74.45;103133.47;5105876;27;20671;-60
2022/01/13 08:29:42;;;;;;;38.53;19.50;;;;;;;4.88;73.88;103126.88;5105608;28;20261;-60
2022/01/13 08:32:10;;;;;;;35.80;19.50;;;;;;;4.92;73.30;103123.22;5094060;28;20218;-61
2022/01/13 08:34:38;;;;;;;38.43;19.70;;;;;;;4.86;73.50;103128.69;5104756;27;20214;-60
2022/01/13 08:37:06;;;;;;;38.63;20.90;;;;;;;4.90;73.60;103122.44;5105987;27;20212;-58
2022/01/13 08:39:39;;;;;;;34.93;18.70;;;;;;;4.98;73.19;103124.84;5100384;27;20300;-59
2022/01/13 08:42:06;;;;;;;30.17;17.53;;;;;;;4.87;73.62;103121.66;5097354;28;20245;-61
2022/01/13 08:44:34;;;;;;;32.47;17.47;;;;;;;4.81;73.98;103130.63;5103762;27;20220;-60
2022/01/13 08:47:04;;;;;;;32.53;18.17;;;;;;;4.95;73.51;103140.69;5095114;27;20743;-60
2022/01/13 08:49:33;;;;;;;33.30;17.37;;;;;;;4.89;73.33;103135.63;5097277;27;20231;-59
2022/01/13 08:52:01;;;;;;;32.57;17.10;;;;;;;5.05;72.89;103144.78;5104842;27;20206;-60
2022/01/13 08:54:29;;;;;;;31.70;17.90;;;;;;;4.89;73.42;103141.75;5108993;27;20233;-60
2022/01/13 08:56:57;;;;;;;39.13;19.07;;;;;;;4.79;73.83;103135.06;5103601;27;20210;-61
2022/01/13 08:59:25;;;;;;;32.47;18.87;;;;;;;4.92;73.59;103136.38;5105621;27;20301;-61
2022/01/13 09:01:53;;;;;;;32.57;16.47;;;;;;;4.95;73.07;103134.56;5103333;28;20209;-61
2022/01/13 09:04:23;;;;;;;32.83;17.00;;;;;;;4.91;73.26;103141.72;5106922;27;20209;-61
2022/01/13 09:06:51;;;;;;;35.77;17.40;;;;;;;4.83;73.44;103135.84;5105773;28;20414;-61
2022/01/13 09:09:18;;;;;;;30.53;16.70;;;;;;;4.86;73.66;103136.59;5110510;27;20725;-61
2022/01/13 09:11:46;;;;;;;36.13;18.40;;;;;;;4.73;74.06;103139.66;5104282;28;20234;-63
2022/01/13 09:14:15;;;;;;;29.60;16.47;;;;;;;4.84;73.65;103129.63;5107559;27;20317;-64
2022/01/13 09:16:46;;;;;;;30.00;16.07;;;;;;;4.70;74.13;103140.59;5105872;27;20289;-65
2022/01/13 09:19:17;;;;;;;31.13;16.10;;;;;;;4.89;73.16;103136.50;5099219;28;20539;-62
2022/01/13 09:21:48;;;;;;;31.83;17.10;;;;;;;4.93;73.10;103135.47;5094357;27;20639;-63
2022/01/13 09:24:19;;;;;;;32.57;16.53;;;;;;;4.95;73.27;103134.56;5100660;27;20216;-60
2022/01/13 09:26:47;;;;;;;34.00;18.37;;;;;;;4.96;73.51;103131.91;5107459;27;20234;-61
2022/01/13 09:29:16;;;;;;;30.53;17.07;;;;;;;4.93;73.10;103137.25;5106925;27;20304;-59
2022/01/13 09:31:44;;;;;;;32.10;16.93;;;;;;;5.00;73.23;103145.84;5107094;28;20203;-61
2022/01/13 09:34:13;;;;;;;37.27;19.30;;;;;;;5.02;73.17;103138.72;5105232;27;20236;-59
2022/01/13 09:36:41;;;;;;;35.30;18.30;;;;;;;5.05;73.12;103138.66;5103883;27;20211;-61
2022/01/13 09:39:11;;;;;;;34.07;18.87;;;;;;;5.16;72.56;103139.19;5101024;27;20211;-61
2022/01/13 09:41:42;;;;;;;33.90;18.13;;;;;;;5.13;72.33;103145.38;5100940;27;20242;-61
2022/01/13 09:44:13;;;;;;;32.87;17.87;;;;;;;5.14;72.44;103151.50;5098456;28;20202;-61
2022/01/13 09:46:41;;;;;;;30.80;18.27;;;;;;;5.08;72.72;103146.44;5101061;28;20210;-60
2022/01/13 09:49:09;;;;;;;32.17;18.07;;;;;;;5.00;72.92;103151.97;5101162;28;20690;-60
2022/01/13 09:51:44;;;;;;;34.33;20.13;;;;;;;5.12;72.56;103158.59;5100252;27;20213;-62
2022/01/13 09:54:16;;;;;;;37.27;20.13;;;;;;;5.18;72.47;103154.00;5093934;28;20309;-62
2022/01/13 09:56:45;;;;;;;36.33;20.07;;;;;;;5.15;72.18;103161.13;5109061;27;20647;-63
2022/01/13 09:59:12;;;;;;;32.03;17.50;;;;;;;5.07;72.95;103158.75;5106993;28;20265;-62
2022/01/13 10:01:40;;;;;;;28.90;15.63;;;;;;;5.13;72.60;103155.91;5107238;27;20565;-62
2022/01/13 10:04:08;;;;;;;27.20;15.53;;;;;;;5.12;72.55;103159.44;5107302;27;20213;-62
2022/01/13 10:06:42;;;;;;;31.57;17.83;;;;;;;5.24;72.51;103161.72;5109326;27;20269;-61
2022/01/13 10:09:11;;;;;;;29.13;17.03;;;;;;;5.12;73.01;103161.22;5110057;27;20709;-62
2022/01/13 10:11:47;;;;;;;34.73;19.40;;;;;;;5.09;73.18;103161.34;5099739;28;20297;-61
2022/01/13 10:16:23;;;;;;;26.87;15.40;;;;;;;4.91;73.02;103171.50;5079179;28;20329;-61
2022/01/13 10:17:06;;;;;;;27.87;15.43;;;;;;;5.12;72.76;103174.38;5077430;28;20310;-59
2022/01/13 10:19:36;;;;;;;26.40;15.87;;;;;;;4.95;73.02;103159.09;5083922;28;20612;-65
2022/01/13 10:22:06;;;;;;;27.17;15.77;;;;;;;4.95;73.37;103161.75;5077462;28;20295;-59
2022/01/13 10:24:38;;;;;;;33.57;17.77;;;;;;;5.05;72.68;103162.31;5087781;28;20622;-62
2022/01/13 10:27:09;;;;;;;27.80;16.47;;;;;;;5.16;72.23;103152.34;5081562;28;20212;-61
2022/01/13 10:29:43;;;;;;;27.13;15.47;;;;;;;5.11;72.22;103149.84;5082126;28;20239;-60
2022/01/13 10:32:13;;;;;;;30.40;17.30;;;;;;;4.97;72.74;103145.91;5083686;28;20219;-61
2022/01/13 10:34:43;;;;;;;28.80;17.10;;;;;;;5.21;72.17;103142.50;5084333;28;20216;-61
2022/01/13 10:37:14;;;;;;;31.23;16.27;;;;;;;5.20;71.91;103144.28;5086750;28;20233;-61
2022/01/13 10:39:57;;;;;;;29.30;15.77;;;;;;;5.27;71.70;103137.94;5081506;28;20209;-62
2022/01/13 10:45:37;;;;;;;29.50;15.97;;;;;;;5.18;71.66;103147.88;5081178;28;20234;-63
2022/01/13 10:48:08;;;;;;;26.40;14.97;;;;;;;5.21;72.31;103147.78;5078060;28;20610;-60
2022/01/13 10:50:39;;;;;;;26.27;15.23;;;;;;;5.19;71.62;103139.91;5082019;28;20234;-61
2022/01/13 10:53:09;;;;;;;26.63;15.40;;;;;;;5.19;71.91;103144.34;5075068;28;20245;-61
2022/01/13 10:55:40;;;;;;;35.37;19.87;;;;;;;5.34;71.59;103143.84;5083696;28;20206;-61
2022/01/13 10:58:14;;;;;;;30.17;16.93;;;;;;;5.03;72.47;103143.09;5076545;28;20207;-61
2022/01/13 11:00:43;;;;;;;38.77;18.97;;;;;;;5.27;71.93;103142.34;5076833;28;20215;-61
2022/01/13 11:03:14;;;;;;;33.17;18.47;;;;;;;5.33;71.89;103142.13;5075907;28;20718;-61
2022/01/13 11:05:46;;;;;;;36.00;20.97;;;;;;;5.35;71.74;103142.09;5075051;28;20206;-60
2022/01/13 11:08:27;;;;;;;34.50;19.40;;;;;;;5.36;71.66;103141.19;5082034;28;20222;-61
2022/01/13 11:10:57;;;;;;;34.37;19.67;;;;;;;5.34;71.61;103143.00;5072359;28;20258;-61
2022/01/13 11:13:30;;;;;;;35.73;18.73;;;;;;;5.17;72.10;103140.91;5083954;28;20252;-60
2022/01/13 11:15:58;;;;;;;37.90;18.37;;;;;;;5.35;71.89;103140.31;5103630;28;20221;-61
2022/01/13 11:18:28;;;;;;;35.60;19.47;;;;;;;5.19;72.67;103134.66;5101281;28;20222;-60
2022/01/13 11:20:58;;;;;;;37.20;20.77;;;;;;;5.01;73.66;103129.16;5103300;28;20676;-61
2022/01/13 11:23:27;;;;;;;43.53;23.23;;;;;;;5.24;72.50;103121.38;5106142;28;20289;-61
2022/01/13 11:25:57;;;;;;;44.37;22.57;;;;;;;5.32;72.29;103114.09;5083785;28;20648;-61
2022/01/13 11:28:26;;;;;;;43.67;23.93;;;;;;;5.34;72.65;103116.69;5094311;28;20546;-60
2022/01/13 11:30:54;;;;;;;44.03;21.57;;;;;;;5.19;72.98;103113.63;5092204;28;20248;-60
2022/01/13 11:33:24;;;;;;;37.83;20.90;;;;;;;5.24;72.66;103110.84;5102127;28;20263;-60
2022/01/13 11:35:57;;;;;;;43.90;24.07;;;;;;;5.36;72.49;103105.19;5104121;28;20252;-60
2022/01/13 11:38:27;;;;;;;41.40;23.20;;;;;;;5.33;72.26;103107.91;5089684;28;20250;-60
2022/01/13 11:40:59;;;;;;;42.20;23.60;;;;;;;5.44;71.71;103107.56;5100622;28;20293;-62
2022/01/13 11:43:36;;;;;;;48.53;24.03;;;;;;;5.28;72.73;103096.66;5098896;28;20514;-61
2022/01/13 11:46:15;;;;;;;42.17;20.97;;;;;;;5.15;72.70;103092.72;5091738;28;20216;-60